Douglastown, Canada
Current Conditions -  °F | °C
As of 9:00 AM on Tuesday 21 Oct 2014 (Local Time) from CYGP Reporting Station
Few Clouds Few Clouds  
Wind Chill: 35°   Ceiling: Unl
Heat Index: 41°   Visibility: 15mi
Dew Point: 30°   Wind: 10mph
Humidity: 65%   Direction: 270°W
Pressure: 30.01"   Gusts: NA
Location:  48.76°N, 64.39°W
Report Text: CYGP 211300Z 27009KT 15SM FEW030 05/M01 A3001 RMK SC1 SLP164
Loading
Personal Weather Stations






























Interactive Weather Map
Tropical Storm Tracking
New forecast layout! Learn more

10-Day Weather Forecast

Advertisements
Track Severe Weather on mobile